Weather reports worldwide

Advertisment
Siguenza, Spain (8150): temperature & dewpoint: 17.05.2019 14:00:00 - 23.05.2019 14:00:00 (CEST)Siguenza, Spain (8150): wind speed & gusts: 17.05.2019 14:00:00 - 23.05.2019 14:00:00 (CEST)Siguenza, Spain (8150): wind direction: 17.05.2019 14:00:00 - 23.05.2019 14:00:00 (CEST)Siguenza, Spain (8150): visibility: 17.05.2019 14:00:00 - 23.05.2019 14:00:00 (CEST)Siguenza, Spain (8150): sunshine duration: 17.05.2019 14:00:00 - 23.05.2019 14:00:00 (CEST)Siguenza, Spain (8150): precipitation: 17.05.2019 14:00:00 - 23.05.2019 14:00:00 (CEST)
Date & Time tt [°C] td [°C] ff [km/h] ff [kn] fx [km/h] fx [kn] dd vv [km] sd [min] rr [mm]
23.05.2019 14:00:00 - - - - - - - - - -
23.05.2019 13:00:00 - - - - - - - - - -
23.05.2019 12:00:00 21,2 7,4 6 4 17 9 SW 20 0 0,0
23.05.2019 11:00:00 20,2 6,9 6 4 17 9 WSW 20 15 0,0
23.05.2019 10:00:00 17,8 8,1 5 3 14 7 SW 20 1 0,0
23.05.2019 09:00:00 15,1 7,2 4 2 7 4 NNE 20 0 0,0
23.05.2019 08:00:00 11,7 7,8 3 2 5 3 NNE 20 0 -
23.05.2019 07:00:00 10,9 6,8 3 1 6 4 S 20 0 0,0
23.05.2019 06:00:00 11,3 6,4 4 2 10 5 NNE 20 0 0,0
23.05.2019 05:00:00 10,9 6,3 3 2 11 6 ENE 20 0 0,0
23.05.2019 04:00:00 9,7 5,7 6 3 11 6 NE 20 0 0,0
23.05.2019 03:00:00 9,3 5,5 6 4 10 5 NE 20 0 0,0
23.05.2019 02:00:00 10,0 5,6 6 3 10 5 NNE 20 0 -
23.05.2019 01:00:00 11,9 6,0 3 2 11 6 ENE 20 0 0,0
23.05.2019 00:00:00 13,3 6,0 4 2 16 8 ENE 20 0 0,0
22.05.2019 23:00:00 13,7 7,0 6 3 9 5 NNE 20 0 0,0
22.05.2019 22:00:00 16,3 7,0 3 2 7 4 N 20 0 0,0
22.05.2019 21:00:00 19,0 7,1 3 2 9 5 NNE 20 0 0,0
22.05.2019 20:00:00 21,5 5,0 3 1 8 4 W 20 0 -
22.05.2019 19:00:00 22,8 2,3 4 2 9 5 SSW 20 1 0,0
22.05.2019 18:00:00 22,7 2,2 5 3 20 11 WSW 20 48 0,0
22.05.2019 17:00:00 24,3 3,6 5 3 21 12 W 17 60 0,0
22.05.2019 16:00:00 23,9 3,3 5 3 19 10 WSW 20 60 0,0
22.05.2019 15:00:00 22,7 3,8 6 3 22 12 W 20 30 0,0
22.05.2019 14:00:00 22,2 2,9 4 2 19 10 W 20 39 -
22.05.2019 13:00:00 22,3 3,9 5 3 21 11 WSW 20 52 0,0
22.05.2019 12:00:00 21,1 3,8 8 4 21 12 NW 20 38 0,0
22.05.2019 11:00:00 19,2 4,9 5 3 13 7 SW 20 50 0,0
22.05.2019 10:00:00 15,2 6,5 4 2 9 5 S 20 10 0,0
22.05.2019 09:00:00 10,8 5,1 1 1 8 4 ENE 20 0 0,0
22.05.2019 08:00:00 6,1 3,6 3 2 8 4 NE 20 0 -
22.05.2019 07:00:00 3,0 1,8 5 3 8 5 NNE 20 0 0,0
22.05.2019 06:00:00 3,6 2,1 3 2 6 3 NE 20 0 0,0
22.05.2019 05:00:00 4,4 2,6 4 2 10 6 NNE 20 0 0,0
22.05.2019 04:00:00 5,2 3,2 6 3 10 5 NE 20 0 0,0
22.05.2019 03:00:00 6,1 3,4 3 1 10 5 NNE 20 0 0,0
22.05.2019 02:00:00 7,5 3,9 6 3 10 5 NNE 20 0 -
22.05.2019 01:00:00 9,4 4,4 4 2 15 8 ENE 20 0 0,0
22.05.2019 00:00:00 10,5 4,4 6 3 15 8 NE 20 0 0,0
21.05.2019 23:00:00 12,0 3,5 4 2 13 7 ENE 20 0 0,0
21.05.2019 22:00:00 13,6 5,5 3 2 8 4 NE 20 0 0,0
21.05.2019 21:00:00 16,1 5,7 4 2 10 5 NE 20 0 0,0
21.05.2019 20:00:00 18,4 4,2 4 2 16 9 E 20 2 -
21.05.2019 19:00:00 19,2 4,2 6 3 14 8 E 20 3 0,2
21.05.2019 18:00:00 18,9 3,5 3 1 8 5 E 20 3 0,0
21.05.2019 17:00:00 19,2 2,1 3 2 13 7 NNE 20 9 0,0
21.05.2019 16:00:00 19,8 2,7 3 2 16 9 NNE 20 60 0,0
21.05.2019 15:00:00 19,0 1,5 6 3 15 8 NNE 20 30 0,0
21.05.2019 14:00:00 19,0 2,4 6 3 22 12 ENE 20 51 -
21.05.2019 13:00:00 19,4 2,7 4 2 20 11 ENE 20 54 0,0
21.05.2019 12:00:00 17,4 3,3 11 6 25 13 N 20 51 0,0
21.05.2019 11:00:00 16,0 5,0 10 5 19 10 N 20 52 0,0
21.05.2019 10:00:00 13,9 5,0 12 7 21 12 N 20 13 0,0
21.05.2019 09:00:00 11,9 4,9 9 5 21 11 NNE 20 0 0,0
21.05.2019 08:00:00 8,6 4,6 5 3 11 6 ENE 20 0 -
21.05.2019 07:00:00 6,0 4,0 4 2 11 6 ENE 20 0 0,0
21.05.2019 06:00:00 5,1 3,0 3 2 9 5 ENE 20 0 0,0
21.05.2019 05:00:00 5,7 3,2 4 2 12 6 ENE 20 0 0,0
21.05.2019 04:00:00 6,4 3,4 5 3 10 6 ENE 20 0 0,0
21.05.2019 03:00:00 7,6 3,8 4 2 13 7 NE 20 0 0,0
21.05.2019 02:00:00 8,4 4,0 5 3 14 8 NE 20 0 -
21.05.2019 01:00:00 9,4 4,2 6 4 16 8 NNE 20 0 0,0
21.05.2019 00:00:00 10,4 4,3 8 4 16 8 NNE 20 0 0,0
20.05.2019 23:00:00 10,3 3,6 5 3 14 8 NNE 20 0 0,0
20.05.2019 22:00:00 11,0 2,3 0 0 4 2 N 20 0 0,0
20.05.2019 21:00:00 14,3 -0,2 1 1 10 5 W 20 0 0,0
20.05.2019 20:00:00 16,8 -2,3 6 3 21 12 SW 20 0 -
20.05.2019 19:00:00 17,8 -2,4 8 4 20 11 WSW 20 14 0,0
20.05.2019 18:00:00 18,2 -1,1 5 3 22 12 WSW 20 60 0,0
20.05.2019 17:00:00 18,2 -1,6 11 6 25 13 SSW 20 59 0,0
20.05.2019 16:00:00 18,7 0,3 7 4 22 12 W 20 60 0,0
20.05.2019 15:00:00 17,6 -1,1 9 5 21 11 WSW 20 60 0,0
20.05.2019 14:00:00 17,9 1,0 6 3 22 12 S 20 58 -
20.05.2019 13:00:00 16,5 -0,2 7 4 18 10 NW 20 60 0,0
20.05.2019 12:00:00 15,6 3,1 5 3 17 9 S 20 44 0,0
20.05.2019 11:00:00 13,4 2,0 4 2 16 8 ENE 20 50 0,0
20.05.2019 10:00:00 10,9 0,9 3 1 11 6 E 20 19 0,0
20.05.2019 09:00:00 6,9 3,5 4 2 8 4 ENE 20 0 0,0
20.05.2019 08:00:00 2,5 1,6 5 3 11 6 NE 20 0 -
20.05.2019 07:00:00 -0,3 -1,0 2 1 6 4 NE 18 0 0,0
20.05.2019 06:00:00 0,4 -0,2 4 2 9 5 N 20 0 0,0
20.05.2019 05:00:00 1,0 0,3 4 2 10 5 N 20 0 0,0
20.05.2019 04:00:00 2,0 1,0 6 3 11 6 N 20 0 0,0
20.05.2019 03:00:00 2,9 1,6 6 3 11 6 NNE 20 0 0,0
20.05.2019 02:00:00 4,0 2,0 5 3 9 5 NE 20 0 -
20.05.2019 01:00:00 5,2 2,7 4 2 16 8 ENE 20 0 0,0
20.05.2019 00:00:00 6,6 3,2 7 4 13 7 NNE 20 0 0,0
19.05.2019 23:00:00 8,1 3,6 5 3 13 7 NE 20 0 0,0
19.05.2019 22:00:00 9,4 3,4 5 3 11 6 NE 20 0 0,0
19.05.2019 21:00:00 11,7 1,7 5 3 20 11 N 20 0 0,0
19.05.2019 20:00:00 12,6 0,7 9 5 23 13 NNW 20 0 -
19.05.2019 19:00:00 13,6 2,2 4 2 13 7 NW 20 13 0,0
19.05.2019 18:00:00 12,3 4,3 6 3 21 12 SSW 20 29 0,2
19.05.2019 17:00:00 12,3 5,0 6 3 25 14 W 20 0 0,0
19.05.2019 16:00:00 13,6 1,6 14 7 30 16 NNW 20 45 0,0
19.05.2019 15:00:00 13,8 1,8 10 6 29 15 NNW 20 55 0,0
19.05.2019 14:00:00 12,5 2,4 12 6 29 16 N 20 32 -
19.05.2019 13:00:00 12,7 2,8 11 6 31 17 NNW 20 32 0,0
19.05.2019 12:00:00 11,6 1,8 8 4 26 14 NNW 20 5 0,0
19.05.2019 11:00:00 11,7 2,5 11 6 34 19 NW 20 36 0,0
19.05.2019 10:00:00 10,2 2,8 7 4 29 15 WNW 20 18 0,0
19.05.2019 09:00:00 8,1 2,8 7 4 27 14 WNW 20 0 0,0
19.05.2019 08:00:00 5,2 2,4 8 4 17 9 NW 20 0 -
19.05.2019 07:00:00 1,9 1,2 2 1 4 2 W 20 0 0,0
19.05.2019 06:00:00 2,0 1,3 1 1 5 3 N 20 0 0,0
19.05.2019 05:00:00 1,4 0,5 1 1 4 2 S 20 0 0,0
19.05.2019 04:00:00 1,6 0,6 4 2 5 3 NNE 20 0 0,0
19.05.2019 03:00:00 2,7 1,2 1 1 5 3 ESE 20 0 0,0
19.05.2019 02:00:00 3,6 1,8 3 1 8 4 N 20 0 -
19.05.2019 01:00:00 4,6 1,8 2 1 6 3 NNE 20 0 0,0
19.05.2019 00:00:00 5,6 1,7 2 1 6 3 NW 20 0 0,0
18.05.2019 23:00:00 7,3 2,0 2 1 7 4 W 20 0 0,0
18.05.2019 22:00:00 9,2 1,9 1 1 19 10 E 20 0 0,0
18.05.2019 21:00:00 10,3 0,1 10 5 26 14 NNW 20 0 0,0
18.05.2019 20:00:00 11,6 -1,8 7 4 27 14 WNW 20 0 -
18.05.2019 19:00:00 11,9 0,4 6 3 27 14 W 20 6 0,0
18.05.2019 18:00:00 11,8 1,2 10 5 30 16 W 20 9 0,0
18.05.2019 17:00:00 12,4 0,5 9 5 29 15 W 20 11 0,0
18.05.2019 16:00:00 12,4 1,1 9 5 26 14 WNW 20 24 0,0
18.05.2019 15:00:00 13,9 1,6 9 5 25 14 WNW 20 38 0,0
18.05.2019 14:00:00 13,1 0,5 9 5 31 17 W 20 51 -
18.05.2019 13:00:00 11,8 0,3 11 6 29 16 NNW 20 54 0,0
18.05.2019 12:00:00 9,9 1,1 9 5 29 15 NW 20 31 0,0
18.05.2019 11:00:00 9,7 0,9 10 5 37 20 WNW 20 46 0,0
18.05.2019 10:00:00 8,5 2,1 9 5 29 16 WNW 20 25 0,0
18.05.2019 09:00:00 7,2 1,5 9 5 25 13 NW 20 0 0,0
18.05.2019 08:00:00 5,8 2,8 4 2 22 12 NW 20 0 -
18.05.2019 07:00:00 5,4 3,3 6 3 11 6 N 20 0 0,0
18.05.2019 06:00:00 4,5 3,8 2 1 5 3 NNE 20 0 0,0
18.05.2019 05:00:00 4,2 3,5 3 1 6 3 N 20 0 0,0
18.05.2019 04:00:00 4,9 3,7 1 1 7 4 S 20 0 0,0
18.05.2019 03:00:00 5,3 4,0 4 2 7 4 NE 20 0 0,0
18.05.2019 02:00:00 4,9 3,9 2 1 6 3 NE 20 0 -
18.05.2019 01:00:00 5,1 3,8 4 2 8 5 NNE 20 0 0,0
18.05.2019 00:00:00 6,3 4,3 4 2 7 4 N 20 0 0,0
17.05.2019 23:00:00 7,0 4,7 2 1 5 3 S 20 0 0,0
17.05.2019 22:00:00 8,5 4,9 1 1 4 2 SSE 20 0 0,0
17.05.2019 21:00:00 9,8 5,4 3 1 13 7 SW 20 0 0,0
17.05.2019 20:00:00 10,1 3,4 4 2 18 10 N 20 0 -
17.05.2019 19:00:00 10,4 3,0 6 4 25 13 N 20 14 0,0
17.05.2019 18:00:00 11,0 4,0 8 5 24 13 NNW 20 16 0,0
17.05.2019 17:00:00 9,9 3,6 11 6 25 13 NNW 20 0 0,0
17.05.2019 16:00:00 10,5 4,2 7 4 31 17 WNW 20 4 0,0
17.05.2019 15:00:00 10,2 4,1 7 4 29 15 W 20 2 0,0
17.05.2019 14:00:00 9,5 4,5 6 3 24 13 W 20 0 -

tt = temperature
td = dewpoint
ff = wind speed
fx = gusts
dd = wind direction
vv = visibility
sd = sunshine duration
rr = precipitation

Next stations